createdAt,value
2018-03-27T00:01:41.403Z,99018.92
2018-03-27T00:04:10.623Z,99009.73
2018-03-27T00:06:40.391Z,99004.09
2018-03-27T00:09:09.775Z,99008.95
2018-03-27T00:11:38.484Z,99014.61
2018-03-27T00:14:08.754Z,99011.08
2018-03-27T00:16:38.067Z,99016.31
2018-03-27T00:19:06.437Z,99018.08
2018-03-27T00:21:35.473Z,99005.12
2018-03-27T00:24:05.851Z,99013.64
2018-03-27T00:26:34.221Z,99018.73
2018-03-27T00:29:14.422Z,99024.70
2018-03-27T00:32:01.767Z,99023.20
2018-03-27T00:34:47.837Z,99015.53
2018-03-27T00:37:34.719Z,99017.84
2018-03-27T00:40:21.000Z,99015.91
2018-03-27T00:43:00.685Z,99024.60
2018-03-27T00:45:30.041Z,99015.09
2018-03-27T00:47:59.916Z,99021.73
2018-03-27T00:50:29.682Z,99021.21
2018-03-27T00:52:58.075Z,99021.83
2018-03-27T00:55:28.092Z,99021.35
2018-03-27T00:57:56.420Z,99018.31
2018-03-27T01:00:28.696Z,99007.44
2018-03-27T01:02:59.434Z,99004.34
2018-03-27T01:05:28.224Z,99009.56
2018-03-27T01:07:58.348Z,99006.68
2018-03-27T01:10:27.692Z,99002.77
2018-03-27T01:12:56.822Z,98999.89
2018-03-27T01:15:26.226Z,98997.27
2018-03-27T01:17:54.564Z,98994.69
2018-03-27T01:20:24.661Z,98991.49
2018-03-27T01:22:53.279Z,98997.81
2018-03-27T01:25:23.339Z,98993.11
2018-03-27T01:27:51.670Z,98995.59
2018-03-27T01:30:20.330Z,98993.11
2018-03-27T01:32:48.747Z,98994.95
2018-03-27T01:35:18.425Z,99001.55
2018-03-27T01:37:46.855Z,98996.09
2018-03-27T01:40:16.440Z,98996.98
2018-03-27T01:42:45.725Z,98998.14
2018-03-27T01:45:14.541Z,99006.88
2018-03-27T01:47:42.859Z,99001.14
2018-03-27T01:50:11.258Z,99003.88
2018-03-27T01:52:40.463Z,99008.36
2018-03-27T01:55:09.291Z,99001.80
2018-03-27T01:57:38.405Z,98998.66
2018-03-27T02:00:07.662Z,98995.87
2018-03-27T02:02:36.803Z,98992.33
2018-03-27T02:05:05.884Z,98988.61
2018-03-27T02:07:34.649Z,98984.40
2018-03-27T02:10:04.512Z,98980.67
2018-03-27T02:12:38.494Z,98979.01
2018-03-27T02:15:12.708Z,98972.91
2018-03-27T02:17:47.342Z,98970.33
2018-03-27T02:20:23.391Z,98978.23
2018-03-27T02:22:56.032Z,98974.72
2018-03-27T02:25:24.386Z,98979.43
2018-03-27T02:27:53.100Z,98977.38
2018-03-27T02:30:21.537Z,98981.34
2018-03-27T02:32:50.226Z,98977.66
2018-03-27T02:35:19.527Z,98977.27
2018-03-27T02:37:47.850Z,98980.64
2018-03-27T02:40:16.211Z,98977.27
2018-03-27T02:42:44.569Z,98974.72
2018-03-27T02:45:12.977Z,98971.14
2018-03-27T02:47:42.322Z,98975.48
2018-03-27T02:50:10.655Z,98972.17
2018-03-27T02:52:39.022Z,98973.04
2018-03-27T02:55:07.562Z,98972.50
2018-03-27T02:57:36.331Z,98971.14
2018-03-27T03:00:04.673Z,98977.23
2018-03-27T03:02:33.696Z,98967.34
2018-03-27T03:05:02.063Z,98970.70
2018-03-27T03:07:30.708Z,98974.04
2018-03-27T03:09:59.034Z,98976.23
2018-03-27T03:12:27.911Z,98967.92
2018-03-27T03:14:58.320Z,98970.09
2018-03-27T03:17:26.909Z,98962.36
2018-03-27T03:19:56.966Z,98962.28
2018-03-27T03:22:26.293Z,98953.38
2018-03-27T03:24:54.703Z,98946.61
2018-03-27T03:27:24.800Z,98951.23
2018-03-27T03:29:53.114Z,98955.06
2018-03-27T03:32:21.478Z,98957.67
2018-03-27T03:34:51.199Z,98959.61
2018-03-27T03:37:20.318Z,98964.83
2018-03-27T03:39:48.639Z,98962.80
2018-03-27T03:42:16.993Z,98962.61
2018-03-27T03:44:46.173Z,98960.88
2018-03-27T03:47:15.668Z,98961.25
2018-03-27T03:49:45.007Z,98955.78
2018-03-27T03:52:14.717Z,98955.17
2018-03-27T03:54:43.092Z,98955.70
2018-03-27T03:57:12.441Z,98958.58
2018-03-27T03:59:40.775Z,98951.56
2018-03-27T04:02:09.167Z,98949.89
2018-03-27T04:04:38.399Z,98946.58
2018-03-27T04:07:06.763Z,98945.44
2018-03-27T04:09:35.179Z,98947.14
2018-03-27T04:12:03.900Z,98947.00
2018-03-27T04:14:32.256Z,98940.53
2018-03-27T04:17:02.251Z,98943.91
2018-03-27T04:19:30.704Z,98950.16
2018-03-27T04:22:00.859Z,98954.53
2018-03-27T04:24:30.869Z,98948.33
2018-03-27T04:26:59.234Z,98950.20
2018-03-27T04:29:27.802Z,98947.89
2018-03-27T04:31:56.201Z,98951.48
2018-03-27T04:34:24.535Z,98945.73
2018-03-27T04:36:55.844Z,98947.31
2018-03-27T04:39:24.288Z,98944.96
2018-03-27T04:41:52.688Z,98945.98
2018-03-27T04:44:21.003Z,98955.12
2018-03-27T04:46:49.480Z,98944.29
2018-03-27T04:49:17.808Z,98948.73
2018-03-27T04:51:46.409Z,98945.77
2018-03-27T04:54:14.732Z,98951.80
2018-03-27T04:56:43.171Z,98949.95
2018-03-27T04:59:13.189Z,98952.59
2018-03-27T05:01:42.356Z,98948.75
2018-03-27T05:04:11.563Z,98943.42
2018-03-27T05:06:41.714Z,98942.80
2018-03-27T05:09:11.898Z,98950.38
2018-03-27T05:11:40.247Z,98954.23
2018-03-27T05:14:08.562Z,98950.22
2018-03-27T05:16:37.159Z,98953.13
2018-03-27T05:19:05.542Z,98959.05
2018-03-27T05:21:33.906Z,98963.67
2018-03-27T05:24:03.373Z,98956.77
2018-03-27T05:26:31.769Z,98955.03
2018-03-27T05:29:00.170Z,98951.52
2018-03-27T05:31:29.207Z,98954.96
2018-03-27T05:33:58.270Z,98958.62
2018-03-27T05:36:26.635Z,98958.86
2018-03-27T05:38:55.209Z,98958.13
2018-03-27T05:41:25.738Z,98955.88
2018-03-27T05:43:54.431Z,98955.84
2018-03-27T05:46:23.610Z,98957.27
2018-03-27T05:48:52.867Z,98963.17
2018-03-27T05:51:22.065Z,98960.88
2018-03-27T05:53:51.175Z,98956.14
2018-03-27T05:56:20.418Z,98961.86
2018-03-27T05:58:50.028Z,98956.14
2018-03-27T06:01:19.895Z,98964.48
2018-03-27T06:03:48.619Z,98958.79
2018-03-27T06:06:17.403Z,98950.41
2018-03-27T06:08:46.583Z,98960.53
2018-03-27T06:11:15.000Z,98964.81
2018-03-27T06:13:44.089Z,98971.23
2018-03-27T06:16:12.697Z,98966.78
2018-03-27T06:18:41.118Z,98974.10
2018-03-27T06:21:10.278Z,98968.92
2018-03-27T06:23:38.687Z,98968.73
2018-03-27T06:26:07.019Z,98962.13
2018-03-27T06:28:35.496Z,98965.53
2018-03-27T06:31:03.863Z,98968.52
2018-03-27T06:33:33.064Z,98971.03
2018-03-27T06:36:01.428Z,98972.47
2018-03-27T06:38:32.578Z,98966.33
2018-03-27T06:41:01.160Z,98963.67
2018-03-27T06:43:29.526Z,98968.64
2018-03-27T06:45:58.824Z,98969.95
2018-03-27T06:48:27.182Z,98962.85
2018-03-27T06:50:56.355Z,98957.18
2018-03-27T06:53:24.729Z,98955.81
2018-03-27T06:55:53.120Z,98958.36
2018-03-27T06:58:22.363Z,98963.41
2018-03-27T07:00:50.715Z,98960.22
2018-03-27T07:03:22.579Z,98961.02
2018-03-27T07:05:50.910Z,98963.05
2018-03-27T07:08:20.104Z,98961.32
2018-03-27T07:10:49.058Z,98956.96
2018-03-27T07:13:17.425Z,98955.95
2018-03-27T07:15:45.834Z,98953.42
2018-03-27T07:18:15.956Z,98953.70
2018-03-27T07:20:47.917Z,98952.41
2018-03-27T07:23:19.024Z,98947.77
2018-03-27T07:25:47.447Z,98951.65
2018-03-27T07:28:15.819Z,98947.64
2018-03-27T07:30:45.314Z,98947.65
2018-03-27T07:33:13.680Z,98948.66
2018-03-27T07:35:42.688Z,98944.27
2018-03-27T07:38:12.713Z,98944.16
2018-03-27T07:40:41.060Z,98947.80
2018-03-27T07:43:10.739Z,98944.40
2018-03-27T07:45:39.098Z,98947.02
2018-03-27T07:48:08.440Z,98949.80
2018-03-27T07:50:37.596Z,98947.14
2018-03-27T07:53:06.244Z,98945.02
2018-03-27T07:55:35.417Z,98941.33
2018-03-27T07:58:05.099Z,98937.20
2018-03-27T08:00:34.276Z,98938.23
2018-03-27T08:03:03.467Z,98934.42
2018-03-27T08:05:32.687Z,98929.20
2018-03-27T08:08:01.960Z,98926.63
2018-03-27T08:10:30.656Z,98915.64
2018-03-27T08:12:58.987Z,98916.06
2018-03-27T08:15:27.358Z,98913.73
2018-03-27T08:17:56.365Z,98914.41
2018-03-27T08:20:28.227Z,98914.67
2018-03-27T08:22:57.492Z,98908.19
2018-03-27T08:25:26.840Z,98909.62
2018-03-27T08:27:55.339Z,98904.03
2018-03-27T08:30:23.747Z,98899.02
2018-03-27T08:32:52.082Z,98896.11
2018-03-27T08:35:20.448Z,98898.65
2018-03-27T08:37:49.828Z,98903.16
2018-03-27T08:40:18.327Z,98894.53
2018-03-27T08:42:46.656Z,98895.78
2018-03-27T08:45:15.967Z,98894.24
2018-03-27T08:47:48.206Z,98885.70
2018-03-27T08:50:17.717Z,98892.17
2018-03-27T08:52:46.864Z,98884.58
2018-03-27T08:55:18.661Z,98880.51
2018-03-27T08:57:48.243Z,98877.10
2018-03-27T09:00:16.642Z,98874.08
2018-03-27T09:02:45.855Z,98869.08
2018-03-27T09:05:15.048Z,98871.07
2018-03-27T09:07:44.358Z,98868.84
2018-03-27T09:10:12.910Z,98873.68
2018-03-27T09:12:41.315Z,98878.72
2018-03-27T09:15:09.733Z,98869.59
2018-03-27T09:17:40.834Z,98870.14
2018-03-27T09:20:09.165Z,98862.93
2018-03-27T09:22:37.523Z,98863.66
2018-03-27T09:25:05.912Z,98858.66
2018-03-27T09:27:35.020Z,98853.11
2018-03-27T09:30:04.084Z,98856.91
2018-03-27T09:32:32.442Z,98847.12
2018-03-27T09:35:01.951Z,98848.48
2018-03-27T09:37:31.278Z,98842.07
2018-03-27T09:39:59.618Z,98845.39
2018-03-27T09:42:28.862Z,98841.14
2018-03-27T09:44:57.252Z,98839.43
2018-03-27T09:47:26.531Z,98837.03
2018-03-27T09:49:55.436Z,98842.50
2018-03-27T09:52:24.472Z,98841.85
2018-03-27T09:54:52.809Z,98834.41
2018-03-27T09:57:21.172Z,98839.83
2018-03-27T09:59:50.373Z,98836.11
2018-03-27T10:02:20.610Z,98830.91
2018-03-27T10:04:49.863Z,98827.03
2018-03-27T10:07:18.465Z,98826.81
2018-03-27T10:09:48.501Z,98813.13
2018-03-27T10:12:16.875Z,98810.88
2018-03-27T10:14:46.044Z,98814.44
2018-03-27T10:17:15.170Z,98807.33
2018-03-27T10:19:44.734Z,98800.78
2018-03-27T10:22:13.761Z,98808.48
2018-03-27T10:24:43.357Z,98806.84
2018-03-27T10:27:11.764Z,98805.77
2018-03-27T10:29:41.054Z,98803.71
2018-03-27T10:32:10.218Z,98800.27
2018-03-27T10:34:38.569Z,98798.00
2018-03-27T10:37:07.143Z,98787.32
2018-03-27T10:39:36.534Z,98788.47
2018-03-27T10:42:05.512Z,98785.82
2018-03-27T10:44:34.043Z,98779.06
2018-03-27T10:47:02.993Z,98776.42
2018-03-27T10:49:31.493Z,98775.51
2018-03-27T10:52:00.624Z,98762.38
2018-03-27T10:54:29.344Z,98767.80
2018-03-27T10:56:58.649Z,98756.92
2018-03-27T10:59:27.358Z,98754.97
2018-03-27T11:01:56.618Z,98751.41
2018-03-27T11:04:24.992Z,98751.72
2018-03-27T11:06:53.398Z,98752.91
2018-03-27T11:09:23.948Z,98740.64
2018-03-27T11:11:53.120Z,98742.69
2018-03-27T11:14:21.545Z,98737.70
2018-03-27T11:16:51.294Z,98734.31
2018-03-27T11:19:19.676Z,98742.69
2018-03-27T11:21:48.828Z,98745.23
2018-03-27T11:24:18.118Z,98738.82
2018-03-27T11:26:47.074Z,98735.66
2018-03-27T11:29:16.574Z,98730.86
2018-03-27T11:31:45.621Z,98732.09
2018-03-27T11:34:15.424Z,98724.18
2018-03-27T11:36:45.614Z,98727.34
2018-03-27T11:39:14.333Z,98715.78
2018-03-27T11:41:43.073Z,98714.92
2018-03-27T11:44:12.132Z,98712.09
2018-03-27T11:46:40.750Z,98705.83
2018-03-27T11:49:10.510Z,98705.41
2018-03-27T11:51:39.696Z,98705.73
2018-03-27T11:54:08.285Z,98704.66
2018-03-27T11:56:37.200Z,98700.02
2018-03-27T11:59:05.988Z,98692.00
2018-03-27T12:01:35.814Z,98695.64
2018-03-27T12:04:04.978Z,98690.66
2018-03-27T12:06:35.291Z,98679.56
2018-03-27T12:09:03.653Z,98677.41
2018-03-27T12:11:33.624Z,98675.53
2018-03-27T12:14:02.750Z,98661.95
2018-03-27T12:16:32.424Z,98660.63
2018-03-27T12:19:02.524Z,98655.91
2018-03-27T12:21:31.300Z,98651.70
2018-03-27T12:24:03.595Z,98652.08
2018-03-27T12:26:31.993Z,98639.55
2018-03-27T12:29:01.527Z,98631.89
2018-03-27T12:31:29.863Z,98637.27
2018-03-27T12:33:59.261Z,98615.84
2018-03-27T12:36:29.161Z,98612.55
2018-03-27T12:38:57.628Z,98605.43
2018-03-27T12:41:27.549Z,98610.67
2018-03-27T12:43:58.680Z,98597.38
2018-03-27T12:46:28.244Z,98599.95
2018-03-27T12:48:57.445Z,98594.91
2018-03-27T12:51:26.735Z,98594.53
2018-03-27T12:53:55.942Z,98586.16
2018-03-27T12:56:25.317Z,98579.58
2018-03-27T12:58:53.675Z,98581.38
2018-03-27T13:01:23.026Z,98580.42
2018-03-27T13:03:52.458Z,98579.28
2018-03-27T13:06:21.665Z,98571.85
2018-03-27T13:08:50.829Z,98566.40
2018-03-27T13:11:20.329Z,98560.55
2018-03-27T13:13:50.195Z,98559.56
2018-03-27T13:16:18.618Z,98549.19
2018-03-27T13:18:47.756Z,98544.53
2018-03-27T13:21:16.109Z,98540.91
2018-03-27T13:23:48.291Z,98542.36
2018-03-27T13:26:16.891Z,98538.94
2018-03-27T13:28:45.301Z,98535.33
2018-03-27T13:31:15.370Z,98538.64
2018-03-27T13:33:44.175Z,98524.52
2018-03-27T13:36:13.371Z,98524.46
2018-03-27T13:38:42.543Z,98525.66
2018-03-27T13:41:11.757Z,98518.86
2018-03-27T13:43:40.230Z,98519.52
2018-03-27T13:46:09.931Z,98516.33
2018-03-27T13:48:38.405Z,98516.94
2018-03-27T13:51:06.759Z,98515.56
2018-03-27T13:53:35.279Z,98506.48
2018-03-27T13:56:04.441Z,98510.33
2018-03-27T13:58:32.820Z,98508.45
2018-03-27T14:01:02.595Z,98519.81
2018-03-27T14:03:32.093Z,98511.10
2018-03-27T14:06:01.163Z,98506.64
2018-03-27T14:08:29.779Z,98516.09
2018-03-27T14:10:59.123Z,98505.38
2018-03-27T14:13:28.151Z,98501.78
2018-03-27T14:15:56.555Z,98491.69
2018-03-27T14:18:25.839Z,98492.77
2018-03-27T14:20:58.802Z,98487.28
2018-03-27T14:23:28.778Z,98483.09
2018-03-27T14:25:58.007Z,98479.72
2018-03-27T14:28:34.283Z,98472.19
2018-03-27T14:31:04.235Z,98459.91
2018-03-27T14:33:33.358Z,98462.88
2018-03-27T14:36:02.550Z,98456.14
2018-03-27T14:38:31.669Z,98452.17
2018-03-27T14:41:01.691Z,98445.87
2018-03-27T14:43:30.040Z,98449.22
2018-03-27T14:45:59.144Z,98448.33
2018-03-27T14:48:27.482Z,98451.15
2018-03-27T14:50:56.698Z,98445.90
2018-03-27T14:53:27.244Z,98439.63
2018-03-27T14:55:57.520Z,98442.24
2018-03-27T14:58:25.862Z,98439.17
2018-03-27T15:00:57.605Z,98435.44
2018-03-27T15:03:26.805Z,98431.23
2018-03-27T15:05:55.302Z,98427.20
2018-03-27T15:08:25.465Z,98426.26
2018-03-27T15:10:54.311Z,98421.61
2018-03-27T15:13:22.652Z,98418.61
2018-03-27T15:15:57.898Z,98410.48
2018-03-27T15:18:29.221Z,98410.48
2018-03-27T15:20:59.007Z,98403.20
2018-03-27T15:23:27.800Z,98399.30
2018-03-27T15:25:59.226Z,98397.50
2018-03-27T15:28:28.190Z,98393.82
2018-03-27T15:30:57.682Z,98395.20
2018-03-27T15:33:26.083Z,98390.24
2018-03-27T15:35:55.275Z,98384.52
2018-03-27T15:38:23.755Z,98383.68
2018-03-27T15:40:52.213Z,98379.22
2018-03-27T15:43:22.582Z,98377.36
2018-03-27T15:45:51.888Z,98369.43
2018-03-27T15:48:22.104Z,98366.54
2018-03-27T15:50:51.415Z,98370.69
2018-03-27T15:53:20.515Z,98364.31
2018-03-27T15:55:49.484Z,98355.41
2018-03-27T15:58:17.902Z,98347.06
2018-03-27T16:00:47.173Z,98350.17
2018-03-27T16:03:16.438Z,98345.58
2018-03-27T16:05:45.636Z,98340.83
2018-03-27T16:08:14.920Z,98348.73
2018-03-27T16:10:43.999Z,98352.33
2018-03-27T16:13:14.819Z,98356.40
2018-03-27T16:15:43.955Z,98349.22
2018-03-27T16:18:13.793Z,98352.91
2018-03-27T16:20:48.757Z,98360.63
2018-03-27T16:23:17.181Z,98357.70
2018-03-27T16:25:47.926Z,98352.12
2018-03-27T16:28:17.383Z,98344.31
2018-03-27T16:30:46.528Z,98345.83
2018-03-27T16:33:15.951Z,98345.42
2018-03-27T16:35:44.469Z,98343.48
2018-03-27T16:38:13.435Z,98339.29
2018-03-27T16:40:46.493Z,98335.44
2018-03-27T16:43:15.944Z,98335.02
2018-03-27T16:45:46.022Z,98328.16
2018-03-27T16:48:14.395Z,98328.11
2018-03-27T16:50:43.145Z,98323.02
2018-03-27T16:53:12.428Z,98328.84
2018-03-27T16:55:40.903Z,98324.44
2018-03-27T16:58:11.301Z,98328.64
2018-03-27T17:00:41.042Z,98322.59
2018-03-27T17:03:09.477Z,98322.41
2018-03-27T17:05:39.889Z,98322.00
2018-03-27T17:08:14.326Z,98321.82
2018-03-27T17:10:44.531Z,98318.39
2018-03-27T17:13:14.748Z,98316.22
2018-03-27T17:15:43.529Z,98310.97
2018-03-27T17:18:11.935Z,98317.53
2018-03-27T17:20:41.929Z,98315.31
2018-03-27T17:23:10.356Z,98318.13
2018-03-27T17:25:39.603Z,98324.22
2018-03-27T17:28:08.028Z,98321.17
2018-03-27T17:30:39.271Z,98317.48
2018-03-27T17:33:08.452Z,98314.59
2018-03-27T17:35:36.844Z,98317.11
2018-03-27T17:38:06.631Z,98317.59
2018-03-27T17:40:35.625Z,98317.46
2018-03-27T17:43:04.039Z,98312.58
2018-03-27T17:45:32.380Z,98318.09
2018-03-27T17:48:01.851Z,98320.56
2018-03-27T17:50:32.955Z,98325.50
2018-03-27T17:53:01.423Z,98325.44
2018-03-27T17:55:31.359Z,98320.77
2018-03-27T17:58:00.059Z,98314.07
2018-03-27T18:00:29.326Z,98314.91
2018-03-27T18:05:33.196Z,98313.84
2018-03-27T18:08:02.561Z,98321.85
2018-03-27T18:10:33.891Z,98320.69
2018-03-27T18:13:02.903Z,98315.59
2018-03-27T18:15:31.374Z,98321.88
2018-03-27T18:18:00.603Z,98317.92
2018-03-27T18:20:29.052Z,98331.55
2018-03-27T18:22:59.334Z,98326.94
2018-03-27T18:25:28.299Z,98328.44
2018-03-27T18:27:57.599Z,98327.83
2018-03-27T18:30:27.200Z,98325.72
2018-03-27T18:32:57.370Z,98324.00
2018-03-27T18:35:26.321Z,98319.67
2018-03-27T18:37:55.608Z,98322.17
2018-03-27T18:40:27.577Z,98321.00
2018-03-27T18:42:57.082Z,98320.05
2018-03-27T18:45:25.420Z,98311.13
2018-03-27T18:47:57.705Z,98312.60
2018-03-27T18:50:29.213Z,98318.71
2018-03-27T18:52:57.685Z,98314.52
2018-03-27T18:55:26.538Z,98318.78
2018-03-27T18:57:55.974Z,98320.28
2018-03-27T19:00:25.107Z,98315.66
2018-03-27T19:02:53.521Z,98315.11
2018-03-27T19:05:23.602Z,98307.38
2018-03-27T19:07:53.340Z,98307.51
2018-03-27T19:10:21.790Z,98305.45
2018-03-27T19:12:50.155Z,98309.72
2018-03-27T19:15:18.527Z,98309.25
2018-03-27T19:17:47.701Z,98308.37
2018-03-27T19:20:16.099Z,98307.23
2018-03-27T19:22:45.276Z,98303.44
2018-03-27T19:25:13.601Z,98298.22
2018-03-27T19:27:42.114Z,98299.66
2018-03-27T19:30:13.177Z,98292.09
2018-03-27T19:32:44.278Z,98295.62
2018-03-27T19:35:12.667Z,98297.14
2018-03-27T19:37:41.883Z,98295.14
2018-03-27T19:40:13.284Z,98286.67
2018-03-27T19:42:43.115Z,98285.45
2018-03-27T19:45:11.612Z,98282.67
2018-03-27T19:47:41.282Z,98278.67
2018-03-27T19:50:10.478Z,98264.87
2018-03-27T19:52:38.963Z,98268.61
2018-03-27T19:55:08.290Z,98262.34
2018-03-27T19:57:37.843Z,98265.81
2018-03-27T20:00:06.182Z,98262.18
2018-03-27T20:02:35.511Z,98258.49
2018-03-27T20:05:03.874Z,98259.24
2018-03-27T20:07:32.766Z,98256.39
2018-03-27T20:10:02.777Z,98258.45
2018-03-27T20:12:31.142Z,98254.34
2018-03-27T20:15:00.675Z,98238.55
2018-03-27T20:17:30.016Z,98246.49
2018-03-27T20:19:58.403Z,98234.04
2018-03-27T20:22:28.473Z,98236.50
2018-03-27T20:24:56.880Z,98226.91
2018-03-27T20:27:25.994Z,98229.23
2018-03-27T20:29:54.569Z,98220.20
2018-03-27T20:32:23.740Z,98218.88
2018-03-27T20:34:52.306Z,98212.41
2018-03-27T20:37:21.502Z,98212.92
2018-03-27T20:39:50.267Z,98214.60
2018-03-27T20:42:19.751Z,98213.02
2018-03-27T20:44:48.904Z,98208.92
2018-03-27T20:47:17.390Z,98208.45
2018-03-27T20:49:46.544Z,98205.98
2018-03-27T20:52:17.205Z,98202.92
2018-03-27T20:54:48.075Z,98204.72
2018-03-27T20:57:19.068Z,98202.03
2018-03-27T20:59:48.632Z,98201.19
2018-03-27T21:02:17.788Z,98187.52
2018-03-27T21:04:47.976Z,98177.31
2018-03-27T21:07:17.524Z,98177.84
2018-03-27T21:09:45.911Z,98173.22
2018-03-27T21:12:14.330Z,98171.52
2018-03-27T21:14:43.620Z,98173.20
2018-03-27T21:17:13.563Z,98166.69
2018-03-27T21:19:41.929Z,98164.62
2018-03-27T21:22:10.298Z,98163.20
2018-03-27T21:24:39.200Z,98163.67
2018-03-27T21:27:07.768Z,98156.58
2018-03-27T21:29:38.619Z,98146.37
2018-03-27T21:32:06.962Z,98144.80
2018-03-27T21:34:35.419Z,98147.90
2018-03-27T21:37:04.720Z,98144.06
2018-03-27T21:39:33.263Z,98139.22
2018-03-27T21:42:03.357Z,98135.58
2018-03-27T21:44:32.983Z,98135.28
2018-03-27T21:47:02.715Z,98136.44
2018-03-27T21:49:31.995Z,98135.30
2018-03-27T21:52:01.020Z,98131.81
2018-03-27T21:54:31.330Z,98138.95
2018-03-27T21:56:59.979Z,98135.38
2018-03-27T21:59:29.378Z,98139.27
2018-03-27T22:02:00.125Z,98131.76
2018-03-27T22:04:28.541Z,98137.12
2018-03-27T22:06:57.325Z,98127.55
2018-03-27T22:09:28.052Z,98117.08
2018-03-27T22:11:56.507Z,98111.03
2018-03-27T22:14:25.360Z,98123.66
2018-03-27T22:16:54.115Z,98115.05
2018-03-27T22:19:22.532Z,98110.36
2018-03-27T22:21:52.429Z,98106.57
2018-03-27T22:24:23.618Z,98104.89
2018-03-27T22:26:54.423Z,98105.00
2018-03-27T22:29:25.014Z,98096.10
2018-03-27T22:31:54.185Z,98097.11
2018-03-27T22:34:23.471Z,98090.90
2018-03-27T22:36:51.854Z,98089.74
2018-03-27T22:39:20.440Z,98087.01
2018-03-27T22:41:50.552Z,98086.38
2018-03-27T22:44:18.943Z,98088.44
2018-03-27T22:46:47.265Z,98085.71
2018-03-27T22:49:15.726Z,98081.55
2018-03-27T22:51:44.764Z,98079.55
2018-03-27T22:54:13.463Z,98076.94
2018-03-27T22:56:44.526Z,98069.36
2018-03-27T23:01:47.444Z,98066.55
2018-03-27T23:04:16.288Z,98067.66
2018-03-27T23:06:46.368Z,98067.35
2018-03-27T23:09:15.983Z,98059.31
2018-03-27T23:11:45.755Z,98059.69
2018-03-27T23:14:15.776Z,98045.95
2018-03-27T23:16:45.359Z,98057.36
2018-03-27T23:19:14.610Z,98052.64
2018-03-27T23:21:45.644Z,98042.91
2018-03-27T23:24:14.194Z,98048.84
2018-03-27T23:26:42.984Z,98048.23
2018-03-27T23:29:12.195Z,98035.20
2018-03-27T23:31:41.273Z,98037.72
2018-03-27T23:34:10.538Z,98033.49
2018-03-27T23:36:39.158Z,98035.09
2018-03-27T23:39:09.654Z,98035.45
2018-03-27T23:41:38.039Z,98029.56
2018-03-27T23:44:06.517Z,98034.92
2018-03-27T23:46:35.759Z,98026.19
2018-03-27T23:49:04.445Z,98028.16
2018-03-27T23:51:34.140Z,98035.61
2018-03-27T23:54:03.324Z,98031.93
2018-03-27T23:56:32.605Z,98026.47
2018-03-27T23:59:00.988Z,98022.20
